Terminal Aerodrome Forecast
Issued by NWS

Home | Current Version | Previous Version | Text Only | Print | Product List | Glossary Off
Versions: 1 2 3 4 5 6 7 8 9 10 11 12 13 14 15 16

000
FTUS43 KGRB 250355 AAA
TAFMTW
TAF AMD
KMTW 250355Z 2504/2524 11010KT 5SM -SHRA BR BKN004 OVC010
      WS015/16035KT
      TEMPO 2504/2506 2SM SHRA BR
     FM250600 16008KT 3SM -SHRA BR BKN005 OVC010 WS012/21040KT
     FM251200 17013KT 5SM BR VCSH BKN005 OVC010
      TEMPO 2514/2518 3SM SHRA BKN015
     FM252000 22019G30KT P6SM BKN025=

USA.gov is the U.S. government's official web portal to all federal, state and local government web resources and services.